UKBB/KBP METAR and TAF weather

Enter ICAO airport designator
Station Type Date Time Source
UKBB METAR 2020/03/31 14:00 UTC NOAA

UKBB 311400Z 34007G12MPS 310V010 CAVOK 04/M11 Q1019 R36R/CLRD// NOSIG


Station Type Date Time Source
UKBB Decoded METAR 2020/03/31 14:00 UTC NOAA

Boryspil, Ukraine (UKBB) 50-20N 030-58E 122M
Mar 31, 2020 - 10:00 AM EDT / 2020.03.31 1400 UTC
Wind: from the NNW (340 degrees) at 16 MPH (14 KT) gusting to 27 MPH (23 KT) (direction variable):0
Visibility: greater than 7 mile(s):0
Temperature: 39 F (4 C)
Dew Point: 12 F (-11 C)
Relative Humidity: 32%
Pressure (altimeter): 30.09 in. Hg (1019 hPa)
ob: UKBB 311400Z 34007G12MPS 310V010 CAVOK 04/M11 Q1019 R36R/CLRD// NOSIG
cycle: 14

Station Type Date Time Source
UKBB TAF 2020/03/31 12:24 UTC NOAA

TAF TAF COR UKBB 311103Z 3112/0112 33006G11MPS 9999 BKN010 TX05/0112Z TNM06/0104Z
TEMPO 3112/3118 35009G14MPS 2100 -SHSN BKN006 SCT015CB
BECMG 3119/3121 24003G08MPS
TEMPO 3122/0106 2000 BR BKN006
TEMPO 0106/0109 27005G11MPS

Example: see airport list